createdAt,value
2018-12-04T00:00:32.431Z,10.15
2018-12-04T00:01:32.423Z,10.27
2018-12-04T00:02:32.439Z,10.15
2018-12-04T00:03:32.400Z,10.12
2018-12-04T00:04:32.385Z,10.15
2018-12-04T00:05:32.387Z,10.22
2018-12-04T00:06:32.364Z,10.15
2018-12-04T00:07:32.376Z,10.17
2018-12-04T00:08:32.340Z,10.23
2018-12-04T00:09:32.328Z,10.23
2018-12-04T00:10:32.317Z,10.26
2018-12-04T00:11:32.308Z,10.20
2018-12-04T00:12:32.325Z,10.11
2018-12-04T00:13:32.317Z,10.22
2018-12-04T00:14:32.280Z,10.20
2018-12-04T00:15:32.261Z,10.17
2018-12-04T00:16:32.721Z,10.07
2018-12-04T00:17:32.263Z,10.05
2018-12-04T00:18:32.246Z,10.01
2018-12-04T00:19:32.215Z,10.05
2018-12-04T00:20:32.228Z,10.09
2018-12-04T00:21:32.193Z,10.01
2018-12-04T00:22:32.243Z,10.02
2018-12-04T00:23:32.173Z,10.08
2018-12-04T00:24:32.162Z,10.08
2018-12-04T00:25:32.169Z,10.01
2018-12-04T00:26:32.138Z,10.09
2018-12-04T00:27:32.125Z,10.09
2018-12-04T00:28:32.122Z,10.05
2018-12-04T00:29:32.144Z,10.11
2018-12-04T00:30:32.093Z,10.05
2018-12-04T00:31:32.080Z,10.01
2018-12-04T00:32:32.068Z,9.99
2018-12-04T00:33:32.096Z,10.01
2018-12-04T00:34:32.046Z,10.04
2018-12-04T00:35:32.035Z,9.97
2018-12-04T00:36:32.038Z,10.01
2018-12-04T00:37:32.090Z,10.05
2018-12-04T00:38:32.000Z,10.04
2018-12-04T00:39:32.015Z,10.04
2018-12-04T00:40:31.978Z,10.04
2018-12-04T00:41:31.967Z,10.05
2018-12-04T00:42:31.969Z,10.11
2018-12-04T00:43:31.943Z,10.05
2018-12-04T00:44:31.952Z,9.99
2018-12-04T00:45:31.927Z,10.09
2018-12-04T00:46:31.911Z,10.04
2018-12-04T00:47:31.898Z,10.07
2018-12-04T00:48:31.905Z,10.02
2018-12-04T00:49:31.901Z,9.94
2018-12-04T00:50:31.865Z,10.01
2018-12-04T00:51:31.852Z,9.99
2018-12-04T00:52:31.843Z,9.97
2018-12-04T00:53:31.853Z,9.91
2018-12-04T00:54:31.856Z,9.94
2018-12-04T00:55:31.816Z,9.99
2018-12-04T00:56:31.796Z,10.05
2018-12-04T00:57:31.789Z,10.12
2018-12-04T00:58:31.791Z,10.18
2018-12-04T00:59:31.789Z,10.01
2018-12-04T01:00:31.753Z,10.08
2018-12-04T01:01:31.758Z,10.02
2018-12-04T01:02:31.753Z,10.04
2018-12-04T01:03:31.743Z,10.02
2018-12-04T01:04:31.728Z,10.11
2018-12-04T01:05:31.696Z,10.11
2018-12-04T01:06:31.798Z,10.09
2018-12-04T01:07:31.679Z,10.09
2018-12-04T01:08:31.686Z,9.99
2018-12-04T01:09:31.651Z,9.97
2018-12-04T01:10:31.640Z,9.97
2018-12-04T01:11:31.653Z,9.94
2018-12-04T01:12:31.643Z,9.87
2018-12-04T01:13:31.605Z,9.90
2018-12-04T01:14:31.610Z,9.83
2018-12-04T01:15:31.582Z,9.78
2018-12-04T01:16:31.572Z,9.78
2018-12-04T01:17:31.584Z,9.71
2018-12-04T01:18:31.572Z,9.66
2018-12-04T01:19:31.539Z,9.68
2018-12-04T01:20:31.542Z,9.58
2018-12-04T01:21:31.515Z,9.64
2018-12-04T01:22:31.505Z,9.51
2018-12-04T01:23:31.514Z,9.53
2018-12-04T01:24:31.495Z,9.56
2018-12-04T01:25:31.506Z,9.56
2018-12-04T01:26:31.460Z,9.50
2018-12-04T01:27:31.458Z,9.50
2018-12-04T01:28:31.438Z,9.54
2018-12-04T01:29:31.425Z,9.46
2018-12-04T01:30:31.469Z,9.48
2018-12-04T01:31:31.404Z,9.51
2018-12-04T01:32:31.390Z,9.51
2018-12-04T01:33:31.402Z,9.48
2018-12-04T01:34:31.376Z,9.36
2018-12-04T01:35:31.378Z,9.53
2018-12-04T01:36:31.348Z,9.54
2018-12-04T01:37:31.342Z,9.50
2018-12-04T01:38:31.322Z,9.53
2018-12-04T01:39:31.343Z,9.47
2018-12-04T01:40:31.300Z,9.48
2018-12-04T01:41:31.364Z,9.47
2018-12-04T01:42:31.276Z,9.46
2018-12-04T01:43:31.266Z,9.47
2018-12-04T01:44:31.289Z,9.42
2018-12-04T01:45:31.247Z,9.50
2018-12-04T01:46:31.234Z,9.50
2018-12-04T01:47:31.223Z,9.47
2018-12-04T01:48:31.278Z,9.48
2018-12-04T01:49:31.233Z,9.46
2018-12-04T01:50:31.186Z,9.47
2018-12-04T01:51:31.177Z,9.43
2018-12-04T01:52:31.185Z,9.33
2018-12-04T01:53:31.155Z,9.40
2018-12-04T01:54:31.166Z,9.39
2018-12-04T01:55:31.159Z,9.31
2018-12-04T01:56:31.120Z,9.35
2018-12-04T01:57:31.111Z,9.20
2018-12-04T01:58:31.122Z,9.13
2018-12-04T01:59:31.087Z,9.04
2018-12-04T02:00:31.078Z,8.99
2018-12-04T02:01:31.068Z,8.92
2018-12-04T02:02:31.077Z,8.81
2018-12-04T02:03:31.044Z,8.81
2018-12-04T02:04:31.030Z,8.70
2018-12-04T02:05:31.150Z,8.70
2018-12-04T02:06:31.008Z,8.62
2018-12-04T02:07:30.995Z,8.71
2018-12-04T02:08:30.986Z,8.58
2018-12-04T02:09:30.976Z,8.52
2018-12-04T02:10:30.984Z,8.59
2018-12-04T02:11:30.951Z,8.47
2018-12-04T02:12:30.939Z,8.43
2018-12-04T02:13:30.953Z,8.38
2018-12-04T02:14:30.942Z,8.34
2018-12-04T02:15:30.909Z,8.28
2018-12-04T02:16:30.895Z,8.26
2018-12-04T02:17:30.884Z,8.18
2018-12-04T02:18:30.874Z,8.18
2018-12-04T02:19:30.894Z,8.10
2018-12-04T02:20:30.853Z,8.02
2018-12-04T02:21:30.843Z,8.04
2018-12-04T02:22:30.827Z,7.93
2018-12-04T02:23:30.822Z,7.90
2018-12-04T02:24:30.820Z,7.86
2018-12-04T02:25:30.804Z,7.89
2018-12-04T02:26:30.781Z,7.86
2018-12-04T02:27:30.774Z,7.79
2018-12-04T02:28:30.759Z,7.80
2018-12-04T02:29:30.783Z,7.79
2018-12-04T02:30:30.743Z,7.71
2018-12-04T02:31:30.725Z,7.64
2018-12-04T02:32:30.720Z,7.69
2018-12-04T02:33:30.704Z,7.67
2018-12-04T02:34:30.714Z,7.67
2018-12-04T02:35:30.678Z,7.68
2018-12-04T02:36:30.695Z,7.67
2018-12-04T02:37:30.679Z,7.63
2018-12-04T02:38:30.688Z,7.64
2018-12-04T02:39:30.657Z,7.63
2018-12-04T02:40:30.624Z,7.61
2018-12-04T02:41:30.614Z,7.64
2018-12-04T02:42:30.607Z,7.69
2018-12-04T02:43:30.606Z,7.64
2018-12-04T02:44:30.594Z,7.64
2018-12-04T02:45:30.577Z,7.61
2018-12-04T02:46:30.556Z,7.67
2018-12-04T02:47:30.566Z,7.60
2018-12-04T02:48:30.533Z,7.67
2018-12-04T02:49:30.522Z,7.68
2018-12-04T02:50:30.523Z,7.67
2018-12-04T02:51:30.516Z,7.71
2018-12-04T02:52:30.488Z,7.64
2018-12-04T02:53:30.500Z,7.64
2018-12-04T02:54:30.463Z,7.67
2018-12-04T02:55:30.452Z,7.64
2018-12-04T02:56:30.449Z,7.69
2018-12-04T02:57:30.463Z,7.68
2018-12-04T02:58:30.421Z,7.71
2018-12-04T02:59:30.416Z,7.69
2018-12-04T03:00:30.399Z,7.58
2018-12-04T03:01:30.412Z,7.63
2018-12-04T03:02:30.378Z,7.61
2018-12-04T03:03:30.363Z,7.63
2018-12-04T03:04:30.352Z,7.55
2018-12-04T03:05:30.373Z,7.52
2018-12-04T03:06:30.341Z,7.61
2018-12-04T03:07:30.337Z,7.67
2018-12-04T03:08:30.307Z,7.72
2018-12-04T03:09:30.297Z,7.69
2018-12-04T03:10:30.313Z,7.63
2018-12-04T03:11:30.273Z,7.64
2018-12-04T03:12:30.263Z,7.69
2018-12-04T03:13:30.269Z,7.52
2018-12-04T03:14:30.261Z,7.68
2018-12-04T03:15:30.228Z,7.63
2018-12-04T03:16:30.217Z,7.52
2018-12-04T03:17:30.233Z,7.52
2018-12-04T03:18:30.193Z,7.50
2018-12-04T03:19:30.184Z,7.48
2018-12-04T03:20:30.174Z,7.45
2018-12-04T03:21:30.197Z,7.45
2018-12-04T03:22:30.175Z,7.42
2018-12-04T03:23:30.138Z,7.48
2018-12-04T03:24:30.131Z,7.48
2018-12-04T03:25:30.113Z,7.42
2018-12-04T03:26:30.111Z,7.49
2018-12-04T03:27:30.116Z,7.45
2018-12-04T03:28:30.080Z,7.45
2018-12-04T03:29:30.073Z,7.48
2018-12-04T03:30:30.074Z,7.50
2018-12-04T03:31:30.050Z,7.48
2018-12-04T03:32:30.065Z,7.45
2018-12-04T03:33:30.045Z,7.45
2018-12-04T03:34:30.013Z,7.43
2018-12-04T03:35:30.003Z,7.40
2018-12-04T03:36:30.014Z,7.40
2018-12-04T03:37:29.983Z,7.46
2018-12-04T03:38:29.970Z,7.45
2018-12-04T03:39:29.996Z,7.48
2018-12-04T03:40:29.950Z,7.42
2018-12-04T03:41:29.961Z,7.40
2018-12-04T03:42:29.928Z,7.43
2018-12-04T03:43:29.910Z,7.40
2018-12-04T03:44:29.928Z,7.43
2018-12-04T03:45:29.893Z,7.45
2018-12-04T03:46:29.880Z,7.46
2018-12-04T03:47:29.869Z,7.43
2018-12-04T03:48:29.872Z,7.43
2018-12-04T03:49:29.866Z,7.35
2018-12-04T03:50:29.844Z,7.37
2018-12-04T03:51:29.854Z,7.37
2018-12-04T03:52:29.811Z,7.40
2018-12-04T03:53:29.832Z,7.45
2018-12-04T03:54:29.788Z,7.32
2018-12-04T03:55:29.775Z,7.43
2018-12-04T03:56:29.792Z,7.31
2018-12-04T03:57:29.780Z,7.34
2018-12-04T03:58:29.752Z,7.45
2018-12-04T03:59:29.780Z,7.30
2018-12-04T04:00:29.722Z,7.42
2018-12-04T04:01:29.709Z,7.35
2018-12-04T04:02:29.704Z,7.37
2018-12-04T04:03:29.690Z,7.31
2018-12-04T04:04:29.699Z,7.34
2018-12-04T04:05:29.663Z,7.37
2018-12-04T04:06:29.670Z,7.42
2018-12-04T04:07:29.657Z,7.34
2018-12-04T04:08:29.628Z,7.37
2018-12-04T04:09:29.648Z,7.39
2018-12-04T04:10:29.605Z,7.42
2018-12-04T04:11:29.596Z,7.34
2018-12-04T04:12:29.605Z,7.25
2018-12-04T04:13:29.572Z,7.32
2018-12-04T04:14:29.590Z,7.28
2018-12-04T04:15:29.575Z,7.30
2018-12-04T04:16:29.543Z,7.32
2018-12-04T04:17:29.529Z,7.32
2018-12-04T04:18:29.517Z,7.28
2018-12-04T04:19:29.527Z,7.30
2018-12-04T04:20:29.494Z,7.28
2018-12-04T04:21:29.482Z,7.21
2018-12-04T04:22:29.492Z,7.17
2018-12-04T04:23:29.490Z,7.23
2018-12-04T04:24:29.452Z,7.21
2018-12-04T04:25:29.438Z,7.28
2018-12-04T04:26:29.424Z,7.09
2018-12-04T04:27:29.455Z,7.27
2018-12-04T04:28:29.424Z,7.24
2018-12-04T04:29:29.390Z,7.23
2018-12-04T04:30:29.393Z,7.12
2018-12-04T04:31:29.369Z,7.23
2018-12-04T04:32:29.367Z,7.10
2018-12-04T04:33:29.377Z,7.12
2018-12-04T04:34:29.362Z,7.13
2018-12-04T04:35:29.323Z,7.13
2018-12-04T04:36:29.316Z,7.23
2018-12-04T04:37:29.326Z,7.10
2018-12-04T04:38:29.289Z,7.13
2018-12-04T04:39:29.328Z,7.13
2018-12-04T04:40:29.293Z,7.15
2018-12-04T04:41:29.254Z,7.10
2018-12-04T04:42:29.246Z,7.12
2018-12-04T04:43:29.233Z,7.10
2018-12-04T04:44:29.249Z,7.13
2018-12-04T04:45:29.231Z,7.07
2018-12-04T04:46:29.204Z,7.10
2018-12-04T04:47:29.188Z,7.06
2018-12-04T04:48:29.204Z,7.13
2018-12-04T04:49:29.198Z,7.09
2018-12-04T04:50:29.189Z,7.10
2018-12-04T04:51:29.143Z,7.06
2018-12-04T04:52:29.167Z,7.15
2018-12-04T04:53:29.129Z,7.06
2018-12-04T04:54:29.111Z,7.09
2018-12-04T04:55:29.099Z,7.07
2018-12-04T04:56:29.120Z,7.10
2018-12-04T04:57:29.107Z,7.10
2018-12-04T04:58:29.065Z,7.13
2018-12-04T04:59:29.056Z,7.09
2018-12-04T05:00:29.049Z,7.16
2018-12-04T05:01:29.029Z,7.12
2018-12-04T05:02:29.065Z,7.06
2018-12-04T05:03:29.007Z,6.97
2018-12-04T05:04:28.996Z,6.91
2018-12-04T05:05:28.985Z,6.92
2018-12-04T05:06:28.994Z,6.89
2018-12-04T05:07:28.990Z,6.85
2018-12-04T05:08:28.951Z,6.84
2018-12-04T05:09:28.950Z,6.94
2018-12-04T05:10:28.930Z,6.91
2018-12-04T05:11:28.949Z,6.95
2018-12-04T05:12:28.911Z,6.88
2018-12-04T05:13:28.924Z,6.91
2018-12-04T05:14:28.884Z,6.91
2018-12-04T05:15:28.926Z,6.88
2018-12-04T05:16:28.876Z,6.87
2018-12-04T05:17:28.853Z,6.80
2018-12-04T05:18:28.862Z,6.77
2018-12-04T05:19:28.828Z,6.79
2018-12-04T05:20:28.818Z,6.70
2018-12-04T05:21:28.844Z,6.64
2018-12-04T05:22:28.794Z,6.66
2018-12-04T05:23:28.782Z,6.58
2018-12-04T05:24:28.796Z,6.55
2018-12-04T05:25:28.761Z,6.43
2018-12-04T05:26:28.751Z,6.41
2018-12-04T05:27:28.744Z,6.49
2018-12-04T05:28:28.727Z,6.48
2018-12-04T05:29:28.742Z,6.48
2018-12-04T05:30:28.705Z,6.55
2018-12-04T05:31:28.695Z,6.59
2018-12-04T05:32:28.722Z,6.66
2018-12-04T05:33:28.671Z,6.67
2018-12-04T05:34:28.694Z,6.69
2018-12-04T05:35:28.658Z,6.69
2018-12-04T05:36:28.639Z,6.66
2018-12-04T05:37:28.625Z,6.64
2018-12-04T05:38:28.629Z,6.67
2018-12-04T05:39:28.628Z,6.64
2018-12-04T05:40:28.592Z,6.69
2018-12-04T05:41:28.582Z,6.70
2018-12-04T05:42:28.569Z,6.64
2018-12-04T05:43:28.586Z,6.61
2018-12-04T05:44:28.601Z,6.52
2018-12-04T05:45:28.537Z,6.52
2018-12-04T05:46:28.581Z,6.51
2018-12-04T05:47:28.514Z,6.46
2018-12-04T05:48:28.504Z,6.33
2018-12-04T05:49:28.505Z,6.43
2018-12-04T05:50:28.503Z,6.44
2018-12-04T05:51:28.495Z,6.36
2018-12-04T05:52:28.517Z,6.38
2018-12-04T05:53:28.452Z,6.48
2018-12-04T05:54:28.438Z,6.49
2018-12-04T05:55:28.451Z,6.56
2018-12-04T05:56:28.413Z,6.61
2018-12-04T05:57:28.405Z,6.59
2018-12-04T05:58:28.395Z,6.59
2018-12-04T05:59:28.400Z,6.58
2018-12-04T06:00:28.371Z,6.56
2018-12-04T06:01:28.370Z,6.48
2018-12-04T06:02:28.370Z,6.52
2018-12-04T06:03:28.344Z,6.51
2018-12-04T06:04:28.323Z,6.49
2018-12-04T06:05:28.319Z,6.52
2018-12-04T06:06:28.327Z,6.38
2018-12-04T06:07:28.291Z,6.36
2018-12-04T06:08:28.281Z,6.18
2018-12-04T06:09:28.307Z,6.08
2018-12-04T06:10:28.261Z,6.03
2018-12-04T06:11:28.246Z,6.00
2018-12-04T06:12:28.238Z,5.93
2018-12-04T06:13:28.248Z,5.99
2018-12-04T06:14:28.286Z,5.91
2018-12-04T06:15:28.210Z,5.83
2018-12-04T06:16:28.192Z,5.81
2018-12-04T06:17:28.178Z,5.71
2018-12-04T06:18:28.174Z,5.72
2018-12-04T06:19:28.173Z,5.61
2018-12-04T06:20:28.172Z,5.53
2018-12-04T06:21:28.136Z,5.54
2018-12-04T06:22:28.128Z,5.54
2018-12-04T06:23:28.136Z,5.48
2018-12-04T06:24:28.107Z,5.56
2018-12-04T06:25:28.113Z,5.57
2018-12-04T06:26:28.936Z,5.56
2018-12-04T06:27:28.067Z,5.49
2018-12-04T06:28:28.056Z,5.48
2018-12-04T06:29:28.053Z,5.53
2018-12-04T06:30:28.063Z,5.54
2018-12-04T06:31:28.037Z,5.61
2018-12-04T06:32:28.020Z,5.60
2018-12-04T06:33:27.999Z,5.67
2018-12-04T06:34:28.002Z,5.64
2018-12-04T06:35:27.999Z,5.65
2018-12-04T06:36:27.972Z,5.67
2018-12-04T06:37:27.955Z,5.63
2018-12-04T06:38:27.969Z,5.60
2018-12-04T06:39:27.937Z,5.75
2018-12-04T06:40:27.928Z,5.67
2018-12-04T06:41:27.913Z,5.79
2018-12-04T06:42:27.924Z,5.85
2018-12-04T06:43:27.888Z,5.79
2018-12-04T06:44:27.878Z,5.85
2018-12-04T06:45:27.867Z,5.76
2018-12-04T06:46:27.874Z,5.82
2018-12-04T06:47:27.870Z,5.86
2018-12-04T06:48:27.833Z,5.91
2018-12-04T06:49:27.847Z,5.82
2018-12-04T06:50:27.825Z,5.94
2018-12-04T06:51:27.799Z,5.78
2018-12-04T06:52:27.790Z,5.76
2018-12-04T06:53:27.812Z,5.78
2018-12-04T06:54:27.766Z,5.85
2018-12-04T06:55:27.754Z,5.90
2018-12-04T06:56:27.745Z,5.97
2018-12-04T06:57:27.774Z,5.99
2018-12-04T06:58:27.720Z,5.99
2018-12-04T06:59:27.728Z,5.97
2018-12-04T07:00:27.698Z,6.08
2018-12-04T07:01:27.689Z,6.00
2018-12-04T07:02:27.702Z,6.04
2018-12-04T07:03:27.669Z,6.03
2018-12-04T07:04:27.681Z,6.04
2018-12-04T07:05:27.655Z,6.04
2018-12-04T07:06:27.633Z,6.03
2018-12-04T07:07:27.620Z,6.04
2018-12-04T07:08:27.644Z,6.03
2018-12-04T07:09:27.598Z,6.12
2018-12-04T07:10:27.585Z,6.06
2018-12-04T07:11:27.580Z,6.15
2018-12-04T07:12:27.565Z,6.06
2018-12-04T07:13:27.578Z,6.08
2018-12-04T07:14:27.541Z,6.14
2018-12-04T07:15:27.531Z,6.11
2018-12-04T07:16:27.522Z,6.11
2018-12-04T07:17:27.535Z,6.15
2018-12-04T07:18:27.508Z,6.04
2018-12-04T07:19:27.503Z,6.12
2018-12-04T07:20:27.475Z,6.15
2018-12-04T07:21:27.497Z,6.12
2018-12-04T07:22:27.452Z,6.14
2018-12-04T07:23:27.443Z,6.08
2018-12-04T07:24:27.462Z,6.17
2018-12-04T07:25:27.423Z,6.15
2018-12-04T07:26:27.407Z,6.15
2018-12-04T07:27:27.396Z,6.09
2018-12-04T07:28:27.408Z,6.01
2018-12-04T07:29:27.398Z,6.06
2018-12-04T07:30:27.403Z,5.96
2018-12-04T07:31:27.355Z,5.97
2018-12-04T07:32:27.365Z,5.90
2018-12-04T07:33:27.330Z,5.96
2018-12-04T07:34:27.319Z,5.82
2018-12-04T07:35:27.308Z,5.96
2018-12-04T07:36:27.319Z,5.85
2018-12-04T07:37:27.304Z,5.83
2018-12-04T07:38:27.274Z,5.83
2018-12-04T07:39:27.262Z,5.79
2018-12-04T07:40:27.267Z,5.78
2018-12-04T07:41:27.261Z,5.75
2018-12-04T07:42:27.232Z,5.85
2018-12-04T07:43:27.216Z,5.83
2018-12-04T07:44:27.218Z,5.78
2018-12-04T07:45:27.195Z,5.82
2018-12-04T07:46:27.210Z,5.85
2018-12-04T07:47:27.173Z,5.76
2018-12-04T07:48:27.160Z,5.68
2018-12-04T07:49:27.174Z,5.74
2018-12-04T07:50:27.152Z,5.74
2018-12-04T07:51:27.130Z,5.75
2018-12-04T07:52:27.143Z,5.68
2018-12-04T07:53:27.106Z,5.74
2018-12-04T07:54:27.092Z,5.75
2018-12-04T07:55:27.082Z,5.68
2018-12-04T07:56:27.078Z,5.71
2018-12-04T07:57:27.091Z,5.71
2018-12-04T07:58:27.048Z,5.68
2018-12-04T07:59:27.037Z,5.67
2018-12-04T08:00:27.026Z,5.64
2018-12-04T08:01:27.015Z,5.65
2018-12-04T08:02:27.038Z,5.60
2018-12-04T08:03:27.002Z,5.56
2018-12-04T08:04:26.996Z,5.51
2018-12-04T08:05:26.971Z,5.57
2018-12-04T08:06:26.959Z,5.54
2018-12-04T08:07:26.976Z,5.58
2018-12-04T08:08:26.937Z,5.51
2018-12-04T08:09:26.936Z,5.64
2018-12-04T08:10:26.940Z,5.63
2018-12-04T08:11:26.945Z,5.58
2018-12-04T08:12:26.892Z,5.63
2018-12-04T08:13:26.909Z,5.57
2018-12-04T08:14:26.872Z,5.63
2018-12-04T08:15:26.858Z,5.64
2018-12-04T08:16:26.863Z,5.60
2018-12-04T08:17:26.866Z,5.65
2018-12-04T08:18:26.839Z,5.74
2018-12-04T08:19:26.836Z,5.72
2018-12-04T08:20:26.804Z,5.74
2018-12-04T08:21:26.807Z,5.68
2018-12-04T08:22:26.780Z,5.71
2018-12-04T08:23:26.791Z,5.57
2018-12-04T08:24:26.767Z,5.61
2018-12-04T08:25:26.749Z,5.64
2018-12-04T08:26:26.759Z,5.58
2018-12-04T08:27:26.725Z,5.46
2018-12-04T08:28:26.740Z,5.48
2018-12-04T08:29:26.717Z,5.49
2018-12-04T08:30:26.696Z,5.43
2018-12-04T08:31:26.682Z,5.60
2018-12-04T08:32:26.692Z,5.65
2018-12-04T08:33:26.655Z,5.75
2018-12-04T08:34:26.644Z,5.81
2018-12-04T08:35:26.657Z,5.82
2018-12-04T08:36:26.622Z,5.90
2018-12-04T08:37:26.615Z,5.83
2018-12-04T08:38:26.600Z,5.90
2018-12-04T08:39:26.615Z,6.00
2018-12-04T08:40:26.577Z,6.04
2018-12-04T08:41:26.590Z,5.99
2018-12-04T08:42:26.555Z,6.08
2018-12-04T08:43:26.617Z,6.01
2018-12-04T08:44:26.533Z,6.09
2018-12-04T08:45:26.522Z,6.11
2018-12-04T08:46:26.841Z,6.08
2018-12-04T08:47:26.502Z,6.08
2018-12-04T08:48:26.490Z,6.01
2018-12-04T08:49:26.493Z,6.08
2018-12-04T08:50:26.466Z,6.08
2018-12-04T08:51:26.477Z,6.15
2018-12-04T08:52:26.442Z,6.11
2018-12-04T08:53:26.437Z,6.15
2018-12-04T08:54:26.420Z,6.22
2018-12-04T08:55:26.458Z,6.30
2018-12-04T08:56:26.422Z,6.25
2018-12-04T08:57:26.388Z,6.41
2018-12-04T08:58:26.376Z,6.51
2018-12-04T08:59:26.371Z,6.46
2018-12-04T09:00:26.383Z,6.54
2018-12-04T09:01:26.370Z,6.67
2018-12-04T09:02:26.355Z,6.66
2018-12-04T09:03:26.320Z,6.74
2018-12-04T09:04:26.332Z,6.84
2018-12-04T09:05:26.316Z,6.79
2018-12-04T09:06:26.287Z,6.79
2018-12-04T09:07:26.277Z,6.89
2018-12-04T09:08:26.265Z,6.95
2018-12-04T09:09:26.279Z,6.99
2018-12-04T09:10:26.262Z,7.12
2018-12-04T09:11:26.230Z,7.23
2018-12-04T09:12:26.219Z,7.31
2018-12-04T09:13:26.236Z,7.37
2018-12-04T09:14:26.196Z,7.48
2018-12-04T09:15:26.187Z,7.37
2018-12-04T09:16:26.223Z,7.40
2018-12-04T09:17:26.164Z,7.46
2018-12-04T09:18:26.168Z,7.40
2018-12-04T09:19:26.206Z,7.31
2018-12-04T09:20:26.158Z,7.35
2018-12-04T09:21:26.124Z,7.30
2018-12-04T09:22:26.134Z,7.28
2018-12-04T09:23:26.095Z,7.25
2018-12-04T09:24:30.650Z,7.24
2018-12-04T09:25:26.116Z,7.28
2018-12-04T09:26:26.066Z,7.25
2018-12-04T09:27:26.089Z,7.13
2018-12-04T09:28:26.039Z,7.15
2018-12-04T09:29:26.031Z,7.12
2018-12-04T09:30:26.016Z,7.06
2018-12-04T09:31:26.006Z,6.99
2018-12-04T09:32:26.018Z,6.91
2018-12-04T09:33:26.017Z,6.92
2018-12-04T09:34:29.814Z,6.87
2018-12-04T09:35:25.962Z,6.91
2018-12-04T09:36:25.949Z,6.91
2018-12-04T09:37:25.937Z,6.94
2018-12-04T09:38:25.944Z,6.92
2018-12-04T09:39:25.935Z,6.88
2018-12-04T09:40:25.927Z,6.88
2018-12-04T09:41:25.891Z,6.91
2018-12-04T09:42:25.882Z,6.98
2018-12-04T09:43:25.870Z,7.07
2018-12-04T09:44:25.857Z,7.03
2018-12-04T09:45:25.888Z,6.99
2018-12-04T09:46:25.850Z,7.02
2018-12-04T09:47:25.830Z,7.03
2018-12-04T09:48:25.813Z,7.12
2018-12-04T09:49:25.803Z,7.10
2018-12-04T09:50:25.897Z,6.99
2018-12-04T09:51:25.823Z,7.09
2018-12-04T09:52:25.768Z,6.88
2018-12-04T09:53:25.756Z,6.87
2018-12-04T09:54:25.766Z,6.85
2018-12-04T09:55:25.756Z,6.89
2018-12-04T09:56:25.723Z,6.80
2018-12-04T09:57:25.778Z,6.81
2018-12-04T09:58:25.710Z,6.88
2018-12-04T09:59:26.241Z,6.85
2018-12-04T10:00:25.705Z,6.85
2018-12-04T10:01:25.719Z,6.89
2018-12-04T10:02:25.685Z,6.94
2018-12-04T10:03:25.644Z,6.94
2018-12-04T10:04:25.661Z,6.95
2018-12-04T10:05:25.629Z,6.85
2018-12-04T10:06:25.611Z,6.89
2018-12-04T10:07:25.601Z,6.99
2018-12-04T10:08:25.628Z,7.10
2018-12-04T10:09:25.577Z,7.23
2018-12-04T10:10:25.577Z,7.34
2018-12-04T10:11:25.579Z,7.32
2018-12-04T10:12:25.545Z,7.48
2018-12-04T10:13:25.535Z,7.64
2018-12-04T10:14:25.537Z,7.60
2018-12-04T10:15:25.534Z,7.68
2018-12-04T10:16:25.504Z,7.64
2018-12-04T10:17:25.492Z,7.61
2018-12-04T10:18:25.496Z,7.57
2018-12-04T10:19:25.465Z,7.61
2018-12-04T10:20:25.487Z,7.46
2018-12-04T10:21:25.450Z,7.58
2018-12-04T10:22:25.432Z,7.48
2018-12-04T10:23:25.419Z,7.49
2018-12-04T10:24:25.412Z,7.43
2018-12-04T10:25:25.441Z,7.42
2018-12-04T10:26:25.388Z,7.46
2018-12-04T10:27:25.392Z,7.48
2018-12-04T10:28:25.363Z,7.69
2018-12-04T10:29:25.353Z,7.67
2018-12-04T10:30:25.364Z,7.57
2018-12-04T10:31:25.330Z,7.49
2018-12-04T10:32:25.342Z,7.67
2018-12-04T10:33:25.340Z,7.68
2018-12-04T10:34:25.296Z,7.67
2018-12-04T10:35:25.306Z,7.68
2018-12-04T10:36:25.299Z,7.53
2018-12-04T10:37:25.288Z,7.63
2018-12-04T10:38:25.250Z,7.40
2018-12-04T10:39:25.242Z,7.43
2018-12-04T10:40:25.282Z,7.35
2018-12-04T10:41:25.241Z,7.24
2018-12-04T10:42:25.204Z,7.13
2018-12-04T10:43:25.195Z,7.09
2018-12-04T10:44:25.183Z,7.10
2018-12-04T10:45:25.190Z,7.10
2018-12-04T10:46:25.271Z,6.99
2018-12-04T10:47:25.148Z,6.98
2018-12-04T10:48:25.147Z,6.99
2018-12-04T10:49:25.154Z,6.99
2018-12-04T10:50:25.113Z,6.92
2018-12-04T10:51:25.105Z,6.88
2018-12-04T10:52:25.107Z,6.91
2018-12-04T10:53:25.080Z,6.87
2018-12-04T10:54:25.095Z,6.80
2018-12-04T10:55:25.060Z,6.85
2018-12-04T10:56:25.050Z,6.74
2018-12-04T10:57:25.060Z,6.85
2018-12-04T10:58:25.051Z,6.67
2018-12-04T10:59:25.013Z,6.84
2018-12-04T11:00:25.002Z,6.80
2018-12-04T11:01:24.997Z,6.99
2018-12-04T11:02:25.023Z,6.91
2018-12-04T11:03:24.968Z,6.98
2018-12-04T11:04:24.959Z,7.05
2018-12-04T11:05:24.946Z,6.95
2018-12-04T11:06:24.946Z,6.89
2018-12-04T11:07:24.948Z,6.94
2018-12-04T11:08:24.911Z,6.91
2018-12-04T11:09:24.902Z,6.89
2018-12-04T11:10:24.912Z,6.88
2018-12-04T11:11:24.881Z,6.94
2018-12-04T11:12:24.908Z,7.13
2018-12-04T11:13:24.869Z,7.39
2018-12-04T11:14:24.869Z,7.42
2018-12-04T11:15:24.833Z,7.34
2018-12-04T11:16:24.847Z,7.27
2018-12-04T11:17:24.816Z,7.23
2018-12-04T11:18:24.824Z,7.21
2018-12-04T11:19:24.794Z,7.10
2018-12-04T11:20:24.781Z,7.13
2018-12-04T11:21:24.851Z,7.06
2018-12-04T11:22:24.755Z,7.09
2018-12-04T11:23:24.748Z,7.07
2018-12-04T11:24:24.766Z,7.06
2018-12-04T11:25:24.723Z,7.07
2018-12-04T11:26:24.734Z,7.06
2018-12-04T11:27:24.701Z,7.13
2018-12-04T11:28:24.702Z,7.13
2018-12-04T11:29:24.682Z,7.24
2018-12-04T11:30:24.692Z,7.27
2018-12-04T11:31:24.654Z,7.31
2018-12-04T11:32:24.689Z,7.34
2018-12-04T11:33:24.635Z,7.32
2018-12-04T11:34:24.666Z,7.35
2018-12-04T11:35:24.610Z,7.34
2018-12-04T11:36:24.597Z,7.30
2018-12-04T11:37:24.595Z,7.27
2018-12-04T11:38:24.584Z,7.25
2018-12-04T11:39:24.588Z,7.23
2018-12-04T11:40:24.560Z,7.28
2018-12-04T11:41:24.590Z,7.05
2018-12-04T11:42:24.532Z,7.10
2018-12-04T11:43:24.531Z,7.10
2018-12-04T11:44:24.511Z,7.06
2018-12-04T11:45:24.497Z,6.99
2018-12-04T11:46:24.532Z,6.97
2018-12-04T11:47:24.477Z,6.92
2018-12-04T11:48:24.482Z,6.91
2018-12-04T11:49:24.451Z,6.94
2018-12-04T11:50:24.457Z,6.88
2018-12-04T11:51:24.433Z,6.87
2018-12-04T11:52:24.441Z,6.89
2018-12-04T11:53:24.450Z,6.80
2018-12-04T11:54:24.396Z,6.84
2018-12-04T11:55:24.387Z,6.74
2018-12-04T11:56:24.403Z,6.81
2018-12-04T11:57:24.362Z,6.76
2018-12-04T11:58:24.355Z,6.81
2018-12-04T11:59:24.340Z,6.77
2018-12-04T12:00:24.344Z,6.81
2018-12-04T12:01:24.343Z,6.79
2018-12-04T12:02:24.310Z,6.81
2018-12-04T12:03:24.309Z,6.79
2018-12-04T12:04:24.286Z,6.73
2018-12-04T12:05:24.302Z,6.74
2018-12-04T12:06:24.262Z,6.64
2018-12-04T12:07:24.251Z,6.70
2018-12-04T12:08:24.261Z,6.70
2018-12-04T12:09:24.253Z,6.59
2018-12-04T12:10:24.221Z,6.70
2018-12-04T12:11:24.214Z,6.59
2018-12-04T12:12:24.210Z,6.66
2018-12-04T12:13:24.184Z,6.69
2018-12-04T12:14:24.191Z,6.81
2018-12-04T12:15:24.165Z,6.79
2018-12-04T12:16:24.153Z,6.77
2018-12-04T12:17:24.151Z,6.73
2018-12-04T12:18:24.128Z,6.71
2018-12-04T12:19:24.141Z,6.64
2018-12-04T12:20:24.106Z,6.71
2018-12-04T12:21:24.159Z,6.62
2018-12-04T12:22:24.084Z,6.62
2018-12-04T12:23:24.097Z,6.64
2018-12-04T12:24:24.080Z,6.66
2018-12-04T12:25:24.052Z,6.64
2018-12-04T12:26:24.044Z,6.69
2018-12-04T12:27:24.054Z,6.69
2018-12-04T12:28:24.020Z,6.77
2018-12-04T12:29:24.006Z,6.85
2018-12-04T12:30:23.995Z,6.84
2018-12-04T12:31:23.998Z,6.89
2018-12-04T12:32:24.087Z,7.17
2018-12-04T12:33:23.959Z,7.17
2018-12-04T12:34:23.948Z,7.25
2018-12-04T12:35:23.941Z,7.10
2018-12-04T12:36:23.929Z,7.21
2018-12-04T12:37:23.941Z,7.30
2018-12-04T12:38:23.944Z,7.23
2018-12-04T12:39:23.900Z,7.23
2018-12-04T12:40:23.914Z,7.27
2018-12-04T12:41:23.917Z,7.10
2018-12-04T12:42:23.860Z,7.27
2018-12-04T12:43:23.858Z,7.46
2018-12-04T12:44:23.870Z,7.67
2018-12-04T12:45:23.826Z,7.60
2018-12-04T12:46:23.828Z,7.57
2018-12-04T12:47:23.807Z,7.50
2018-12-04T12:48:23.790Z,7.50
2018-12-04T12:49:23.806Z,7.43
2018-12-04T12:50:23.795Z,7.46
2018-12-04T12:51:23.785Z,7.68
2018-12-04T12:52:23.773Z,7.71
2018-12-04T12:53:23.735Z,7.58
2018-12-04T12:54:23.726Z,7.67
2018-12-04T12:55:23.735Z,7.67
2018-12-04T12:56:23.702Z,7.63
2018-12-04T12:57:23.713Z,7.69
2018-12-04T12:58:23.677Z,7.69
2018-12-04T12:59:23.694Z,7.86
2018-12-04T13:00:23.655Z,7.93
2018-12-04T13:01:23.643Z,7.64
2018-12-04T13:02:23.687Z,7.60
2018-12-04T13:03:23.620Z,7.64
2018-12-04T13:04:23.613Z,7.67
2018-12-04T13:05:23.598Z,7.58
2018-12-04T13:06:23.615Z,7.63
2018-12-04T13:07:23.576Z,7.57
2018-12-04T13:08:23.567Z,7.53
2018-12-04T13:09:23.603Z,7.48
2018-12-04T13:10:23.569Z,7.40
2018-12-04T13:11:23.533Z,7.34
2018-12-04T13:12:23.553Z,7.25
2018-12-04T13:13:23.509Z,7.20
2018-12-04T13:14:23.499Z,7.25
2018-12-04T13:15:23.489Z,7.15
2018-12-04T13:16:23.514Z,7.13